sensor_id;sensor_type;location;lat;lon;timestamp;P1;durP1;ratioP1;P2;durP2;ratioP2
45274;SDS011;31019;43.780;25.948;2023-06-05T00:00:01;38.25;;;34.15;;
45274;SDS011;31019;43.780;25.948;2023-06-05T00:02:38;39.75;;;35.75;;
45274;SDS011;31019;43.780;25.948;2023-06-05T00:05:05;40.20;;;36.10;;
45274;SDS011;31019;43.780;25.948;2023-06-05T00:07:34;39.20;;;35.30;;
45274;SDS011;31019;43.780;25.948;2023-06-05T00:10:03;39.13;;;35.05;;
45274;SDS011;31019;43.780;25.948;2023-06-05T00:12:31;38.60;;;34.88;;
45274;SDS011;31019;43.780;25.948;2023-06-05T00:15:00;37.47;;;33.65;;
45274;SDS011;31019;43.780;25.948;2023-06-05T00:17:27;36.65;;;32.85;;
45274;SDS011;31019;43.780;25.948;2023-06-05T00:19:55;38.65;;;32.25;;
45274;SDS011;31019;43.780;25.948;2023-06-05T00:22:23;40.40;;;36.30;;
45274;SDS011;31019;43.780;25.948;2023-06-05T00:24:50;38.55;;;34.58;;
45274;SDS011;31019;43.780;25.948;2023-06-05T00:27:31;44.05;;;39.67;;
45274;SDS011;31019;43.780;25.948;2023-06-05T00:29:58;47.60;;;43.00;;
45274;SDS011;31019;43.780;25.948;2023-06-05T00:32:26;41.85;;;37.80;;
45274;SDS011;31019;43.780;25.948;2023-06-05T00:34:53;44.78;;;40.72;;
45274;SDS011;31019;43.780;25.948;2023-06-05T00:37:20;42.22;;;37.72;;
45274;SDS011;31019;43.780;25.948;2023-06-05T00:39:47;40.47;;;36.25;;
45274;SDS011;31019;43.780;25.948;2023-06-05T00:42:15;44.10;;;40.10;;
45274;SDS011;31019;43.780;25.948;2023-06-05T00:44:42;38.38;;;34.47;;
45274;SDS011;31019;43.780;25.948;2023-06-05T00:47:17;39.78;;;35.78;;
45274;SDS011;31019;43.780;25.948;2023-06-05T00:49:57;40.00;;;35.97;;
45274;SDS011;31019;43.780;25.948;2023-06-05T00:52:29;48.13;;;43.90;;
45274;SDS011;31019;43.780;25.948;2023-06-05T00:57:29;41.53;;;37.33;;
45274;SDS011;31019;43.780;25.948;2023-06-05T01:00:03;41.15;;;37.13;;
45274;SDS011;31019;43.780;25.948;2023-06-05T01:05:02;40.83;;;36.83;;
45274;SDS011;31019;43.780;25.948;2023-06-05T01:07:31;40.67;;;36.38;;
45274;SDS011;31019;43.780;25.948;2023-06-05T01:09:59;39.17;;;35.28;;
45274;SDS011;31019;43.780;25.948;2023-06-05T01:12:26;38.75;;;34.75;;
45274;SDS011;31019;43.780;25.948;2023-06-05T01:15:00;42.70;;;38.45;;
45274;SDS011;31019;43.780;25.948;2023-06-05T01:17:45;43.15;;;38.95;;
45274;SDS011;31019;43.780;25.948;2023-06-05T01:20:12;42.57;;;38.17;;
45274;SDS011;31019;43.780;25.948;2023-06-05T01:22:48;38.22;;;34.15;;
45274;SDS011;31019;43.780;25.948;2023-06-05T01:25:17;44.15;;;36.28;;
45274;SDS011;31019;43.780;25.948;2023-06-05T01:27:47;40.85;;;36.95;;
45274;SDS011;31019;43.780;25.948;2023-06-05T01:30:21;39.55;;;35.42;;
45274;SDS011;31019;43.780;25.948;2023-06-05T01:32:55;39.70;;;35.63;;
45274;SDS011;31019;43.780;25.948;2023-06-05T01:35:27;43.15;;;38.95;;
45274;SDS011;31019;43.780;25.948;2023-06-05T01:38:02;38.10;;;34.03;;
45274;SDS011;31019;43.780;25.948;2023-06-05T01:40:34;37.25;;;33.35;;
45274;SDS011;31019;43.780;25.948;2023-06-05T01:43:03;38.25;;;34.35;;
45274;SDS011;31019;43.780;25.948;2023-06-05T01:45:31;37.25;;;33.55;;
45274;SDS011;31019;43.780;25.948;2023-06-05T01:47:59;39.15;;;35.25;;
45274;SDS011;31019;43.780;25.948;2023-06-05T01:50:32;35.95;;;32.45;;
45274;SDS011;31019;43.780;25.948;2023-06-05T01:53:03;37.20;;;33.13;;
45274;SDS011;31019;43.780;25.948;2023-06-05T01:55:31;39.75;;;35.75;;
45274;SDS011;31019;43.780;25.948;2023-06-05T01:57:57;42.72;;;38.53;;
45274;SDS011;31019;43.780;25.948;2023-06-05T02:00:24;48.97;;;44.28;;
45274;SDS011;31019;43.780;25.948;2023-06-05T02:02:52;44.08;;;39.85;;
45274;SDS011;31019;43.780;25.948;2023-06-05T02:05:21;50.08;;;45.28;;
45274;SDS011;31019;43.780;25.948;2023-06-05T02:07:49;47.20;;;42.70;;
45274;SDS011;31019;43.780;25.948;2023-06-05T02:10:21;48.05;;;43.63;;
45274;SDS011;31019;43.780;25.948;2023-06-05T02:15:26;46.08;;;41.67;;
45274;SDS011;31019;43.780;25.948;2023-06-05T02:17:58;48.90;;;44.55;;
45274;SDS011;31019;43.780;25.948;2023-06-05T02:20:42;42.17;;;37.78;;
45274;SDS011;31019;43.780;25.948;2023-06-05T02:23:09;41.15;;;37.03;;
45274;SDS011;31019;43.780;25.948;2023-06-05T02:25:38;41.53;;;37.45;;
45274;SDS011;31019;43.780;25.948;2023-06-05T02:28:05;34.83;;;31.38;;
45274;SDS011;31019;43.780;25.948;2023-06-05T02:30:32;36.53;;;32.63;;
45274;SDS011;31019;43.780;25.948;2023-06-05T02:32:59;38.35;;;34.60;;
45274;SDS011;31019;43.780;25.948;2023-06-05T02:35:27;32.85;;;29.45;;
45274;SDS011;31019;43.780;25.948;2023-06-05T02:37:54;33.00;;;29.73;;
45274;SDS011;31019;43.780;25.948;2023-06-05T02:40:21;31.65;;;28.75;;
45274;SDS011;31019;43.780;25.948;2023-06-05T02:42:50;33.38;;;30.35;;
45274;SDS011;31019;43.780;25.948;2023-06-05T02:45:17;33.60;;;29.73;;
45274;SDS011;31019;43.780;25.948;2023-06-05T02:47:44;33.20;;;29.85;;
45274;SDS011;31019;43.780;25.948;2023-06-05T02:50:11;34.17;;;30.55;;
45274;SDS011;31019;43.780;25.948;2023-06-05T02:52:38;35.08;;;31.67;;
45274;SDS011;31019;43.780;25.948;2023-06-05T02:55:05;36.53;;;33.03;;
45274;SDS011;31019;43.780;25.948;2023-06-05T02:57:33;36.53;;;33.00;;
45274;SDS011;31019;43.780;25.948;2023-06-05T03:00:08;34.85;;;31.42;;
45274;SDS011;31019;43.780;25.948;2023-06-05T03:02:47;34.28;;;31.15;;
45274;SDS011;31019;43.780;25.948;2023-06-05T03:05:23;34.47;;;31.35;;
45274;SDS011;31019;43.780;25.948;2023-06-05T03:07:52;33.97;;;30.80;;
45274;SDS011;31019;43.780;25.948;2023-06-05T03:10:19;36.28;;;32.88;;
45274;SDS011;31019;43.780;25.948;2023-06-05T03:12:52;34.90;;;31.90;;
45274;SDS011;31019;43.780;25.948;2023-06-05T03:15:20;32.55;;;29.75;;
45274;SDS011;31019;43.780;25.948;2023-06-05T03:17:47;34.05;;;31.15;;
45274;SDS011;31019;43.780;25.948;2023-06-05T03:20:16;34.70;;;31.42;;
45274;SDS011;31019;43.780;25.948;2023-06-05T03:22:44;36.10;;;32.80;;
45274;SDS011;31019;43.780;25.948;2023-06-05T03:25:11;34.80;;;31.63;;
45274;SDS011;31019;43.780;25.948;2023-06-05T03:27:38;36.00;;;32.70;;
45274;SDS011;31019;43.780;25.948;2023-06-05T03:30:07;36.22;;;32.80;;
45274;SDS011;31019;43.780;25.948;2023-06-05T03:32:36;37.60;;;34.10;;
45274;SDS011;31019;43.780;25.948;2023-06-05T03:35:09;36.03;;;32.60;;
45274;SDS011;31019;43.780;25.948;2023-06-05T03:37:43;37.47;;;34.15;;
45274;SDS011;31019;43.780;25.948;2023-06-05T03:40:11;38.42;;;34.92;;
45274;SDS011;31019;43.780;25.948;2023-06-05T03:42:38;40.10;;;36.17;;
45274;SDS011;31019;43.780;25.948;2023-06-05T03:45:05;42.50;;;38.65;;
45274;SDS011;31019;43.780;25.948;2023-06-05T03:47:39;42.95;;;38.70;;
45274;SDS011;31019;43.780;25.948;2023-06-05T03:50:06;42.67;;;38.67;;
45274;SDS011;31019;43.780;25.948;2023-06-05T03:52:33;42.53;;;38.53;;
45274;SDS011;31019;43.780;25.948;2023-06-05T03:55:05;42.60;;;38.80;;
45274;SDS011;31019;43.780;25.948;2023-06-05T03:57:33;44.45;;;40.30;;
45274;SDS011;31019;43.780;25.948;2023-06-05T04:02:42;47.35;;;42.58;;
45274;SDS011;31019;43.780;25.948;2023-06-05T04:05:09;46.58;;;42.47;;
45274;SDS011;31019;43.780;25.948;2023-06-05T04:07:37;50.00;;;45.63;;
45274;SDS011;31019;43.780;25.948;2023-06-05T04:10:04;49.70;;;45.38;;
45274;SDS011;31019;43.780;25.948;2023-06-05T04:12:32;50.97;;;46.58;;
45274;SDS011;31019;43.780;25.948;2023-06-05T04:17:30;53.03;;;48.63;;
45274;SDS011;31019;43.780;25.948;2023-06-05T04:19:59;49.97;;;45.42;;
45274;SDS011;31019;43.780;25.948;2023-06-05T04:22:26;49.65;;;45.40;;
45274;SDS011;31019;43.780;25.948;2023-06-05T04:24:53;54.47;;;49.92;;
45274;SDS011;31019;43.780;25.948;2023-06-05T04:27:19;55.08;;;50.28;;
45274;SDS011;31019;43.780;25.948;2023-06-05T04:29:46;54.03;;;49.53;;
45274;SDS011;31019;43.780;25.948;2023-06-05T04:32:14;57.35;;;52.75;;
45274;SDS011;31019;43.780;25.948;2023-06-05T04:37:17;58.30;;;53.28;;
45274;SDS011;31019;43.780;25.948;2023-06-05T04:39:43;58.70;;;53.80;;
45274;SDS011;31019;43.780;25.948;2023-06-05T04:42:10;59.50;;;54.40;;
45274;SDS011;31019;43.780;25.948;2023-06-05T04:47:25;60.17;;;55.25;;
45274;SDS011;31019;43.780;25.948;2023-06-05T04:49:52;61.25;;;56.15;;
45274;SDS011;31019;43.780;25.948;2023-06-05T04:52:21;63.38;;;57.67;;
45274;SDS011;31019;43.780;25.948;2023-06-05T04:54:48;61.58;;;56.55;;
45274;SDS011;31019;43.780;25.948;2023-06-05T04:57:18;58.15;;;53.35;;
45274;SDS011;31019;43.780;25.948;2023-06-05T04:59:45;55.80;;;51.05;;
45274;SDS011;31019;43.780;25.948;2023-06-05T05:02:12;58.95;;;53.60;;
45274;SDS011;31019;43.780;25.948;2023-06-05T05:04:39;57.45;;;52.75;;
45274;SDS011;31019;43.780;25.948;2023-06-05T05:07:06;59.80;;;54.63;;
45274;SDS011;31019;43.780;25.948;2023-06-05T05:09:39;59.17;;;53.33;;
45274;SDS011;31019;43.780;25.948;2023-06-05T05:12:07;63.03;;;56.33;;
45274;SDS011;31019;43.780;25.948;2023-06-05T05:14:36;66.18;;;53.80;;
45274;SDS011;31019;43.780;25.948;2023-06-05T05:17:05;67.88;;;60.72;;
45274;SDS011;31019;43.780;25.948;2023-06-05T05:19:32;66.93;;;59.95;;
45274;SDS011;31019;43.780;25.948;2023-06-05T05:21:59;65.82;;;59.13;;
45274;SDS011;31019;43.780;25.948;2023-06-05T05:24:26;62.75;;;56.20;;
45274;SDS011;31019;43.780;25.948;2023-06-05T05:26:54;67.20;;;56.72;;
45274;SDS011;31019;43.780;25.948;2023-06-05T05:29:21;73.03;;;59.72;;
45274;SDS011;31019;43.780;25.948;2023-06-05T05:31:48;73.57;;;58.72;;
45274;SDS011;31019;43.780;25.948;2023-06-05T05:36:47;61.15;;;55.70;;
45274;SDS011;31019;43.780;25.948;2023-06-05T05:39:14;62.05;;;56.30;;
45274;SDS011;31019;43.780;25.948;2023-06-05T05:41:40;59.83;;;54.53;;
45274;SDS011;31019;43.780;25.948;2023-06-05T05:44:15;56.50;;;51.70;;
45274;SDS011;31019;43.780;25.948;2023-06-05T05:46:44;59.17;;;54.38;;
45274;SDS011;31019;43.780;25.948;2023-06-05T05:49:14;64.00;;;57.88;;
45274;SDS011;31019;43.780;25.948;2023-06-05T05:51:41;66.47;;;59.80;;
45274;SDS011;31019;43.780;25.948;2023-06-05T05:54:08;71.90;;;60.97;;
45274;SDS011;31019;43.780;25.948;2023-06-05T05:56:35;64.90;;;58.65;;
45274;SDS011;31019;43.780;25.948;2023-06-05T05:59:07;56.85;;;51.78;;
45274;SDS011;31019;43.780;25.948;2023-06-05T06:01:36;53.75;;;48.72;;
45274;SDS011;31019;43.780;25.948;2023-06-05T06:04:03;57.22;;;51.40;;
45274;SDS011;31019;43.780;25.948;2023-06-05T06:09:07;47.40;;;41.03;;
45274;SDS011;31019;43.780;25.948;2023-06-05T06:11:36;43.10;;;38.45;;
45274;SDS011;31019;43.780;25.948;2023-06-05T06:14:04;38.88;;;34.60;;
45274;SDS011;31019;43.780;25.948;2023-06-05T06:16:31;36.10;;;32.25;;
45274;SDS011;31019;43.780;25.948;2023-06-05T06:18:59;36.88;;;32.78;;
45274;SDS011;31019;43.780;25.948;2023-06-05T06:23:59;29.77;;;26.50;;
45274;SDS011;31019;43.780;25.948;2023-06-05T06:26:26;30.45;;;27.55;;
45274;SDS011;31019;43.780;25.948;2023-06-05T06:28:53;33.03;;;29.60;;
45274;SDS011;31019;43.780;25.948;2023-06-05T06:31:22;33.47;;;30.13;;
45274;SDS011;31019;43.780;25.948;2023-06-05T06:33:50;33.10;;;29.58;;
45274;SDS011;31019;43.780;25.948;2023-06-05T06:36:18;36.33;;;32.70;;
45274;SDS011;31019;43.780;25.948;2023-06-05T06:38:47;36.95;;;33.60;;
45274;SDS011;31019;43.780;25.948;2023-06-05T06:41:14;34.78;;;31.98;;
45274;SDS011;31019;43.780;25.948;2023-06-05T06:43:42;31.80;;;29.10;;
45274;SDS011;31019;43.780;25.948;2023-06-05T06:46:09;32.22;;;29.50;;
45274;SDS011;31019;43.780;25.948;2023-06-05T06:48:36;29.25;;;26.25;;
45274;SDS011;31019;43.780;25.948;2023-06-05T06:51:03;26.92;;;24.40;;
45274;SDS011;31019;43.780;25.948;2023-06-05T06:53:31;30.38;;;27.77;;
45274;SDS011;31019;43.780;25.948;2023-06-05T06:55:58;29.23;;;26.30;;
45274;SDS011;31019;43.780;25.948;2023-06-05T06:58:24;27.08;;;24.67;;
45274;SDS011;31019;43.780;25.948;2023-06-05T07:00:52;26.95;;;24.50;;
45274;SDS011;31019;43.780;25.948;2023-06-05T07:03:20;27.95;;;25.42;;
45274;SDS011;31019;43.780;25.948;2023-06-05T07:05:49;30.55;;;27.92;;
45274;SDS011;31019;43.780;25.948;2023-06-05T07:08:18;31.33;;;28.48;;
45274;SDS011;31019;43.780;25.948;2023-06-05T07:10:47;26.50;;;24.33;;
45274;SDS011;31019;43.780;25.948;2023-06-05T07:13:13;26.08;;;23.48;;
45274;SDS011;31019;43.780;25.948;2023-06-05T07:15:40;23.42;;;21.52;;
45274;SDS011;31019;43.780;25.948;2023-06-05T07:18:07;24.38;;;22.40;;
45274;SDS011;31019;43.780;25.948;2023-06-05T07:20:35;23.23;;;20.98;;
45274;SDS011;31019;43.780;25.948;2023-06-05T07:23:02;23.92;;;21.70;;
45274;SDS011;31019;43.780;25.948;2023-06-05T07:25:29;24.35;;;22.25;;
45274;SDS011;31019;43.780;25.948;2023-06-05T07:27:57;24.77;;;22.73;;
45274;SDS011;31019;43.780;25.948;2023-06-05T07:30:25;24.23;;;22.52;;
45274;SDS011;31019;43.780;25.948;2023-06-05T07:32:52;23.02;;;21.05;;
45274;SDS011;31019;43.780;25.948;2023-06-05T07:35:19;24.38;;;22.42;;
45274;SDS011;31019;43.780;25.948;2023-06-05T07:37:46;24.58;;;22.48;;
45274;SDS011;31019;43.780;25.948;2023-06-05T07:40:13;23.83;;;21.83;;
45274;SDS011;31019;43.780;25.948;2023-06-05T07:42:40;22.50;;;20.80;;
45274;SDS011;31019;43.780;25.948;2023-06-05T07:45:08;23.65;;;21.85;;
45274;SDS011;31019;43.780;25.948;2023-06-05T07:50:10;21.70;;;20.00;;
45274;SDS011;31019;43.780;25.948;2023-06-05T07:52:37;22.42;;;20.35;;
45274;SDS011;31019;43.780;25.948;2023-06-05T07:55:04;22.48;;;20.70;;
45274;SDS011;31019;43.780;25.948;2023-06-05T07:57:32;25.10;;;23.00;;
45274;SDS011;31019;43.780;25.948;2023-06-05T07:59:59;23.27;;;21.48;;
45274;SDS011;31019;43.780;25.948;2023-06-05T08:02:32;21.83;;;20.05;;
45274;SDS011;31019;43.780;25.948;2023-06-05T08:05:00;20.73;;;19.08;;
45274;SDS011;31019;43.780;25.948;2023-06-05T08:07:27;21.75;;;20.15;;
45274;SDS011;31019;43.780;25.948;2023-06-05T08:09:54;27.30;;;25.42;;
45274;SDS011;31019;43.780;25.948;2023-06-05T08:12:28;26.75;;;24.58;;
45274;SDS011;31019;43.780;25.948;2023-06-05T08:15:04;34.78;;;32.30;;
45274;SDS011;31019;43.780;25.948;2023-06-05T08:20:03;33.58;;;31.27;;
45274;SDS011;31019;43.780;25.948;2023-06-05T08:22:32;33.92;;;31.92;;
45274;SDS011;31019;43.780;25.948;2023-06-05T08:24:59;31.05;;;28.80;;
45274;SDS011;31019;43.780;25.948;2023-06-05T08:29:58;29.75;;;27.48;;
45274;SDS011;31019;43.780;25.948;2023-06-05T08:32:24;27.00;;;25.08;;
45274;SDS011;31019;43.780;25.948;2023-06-05T08:34:54;26.63;;;24.83;;
45274;SDS011;31019;43.780;25.948;2023-06-05T08:37:20;29.30;;;27.20;;
45274;SDS011;31019;43.780;25.948;2023-06-05T08:39:48;28.25;;;26.15;;
45274;SDS011;31019;43.780;25.948;2023-06-05T08:42:25;28.42;;;26.20;;
45274;SDS011;31019;43.780;25.948;2023-06-05T08:44:53;27.60;;;25.73;;
45274;SDS011;31019;43.780;25.948;2023-06-05T08:47:20;26.40;;;24.13;;
45274;SDS011;31019;43.780;25.948;2023-06-05T08:50:05;26.48;;;24.67;;
45274;SDS011;31019;43.780;25.948;2023-06-05T08:52:37;26.10;;;24.20;;
45274;SDS011;31019;43.780;25.948;2023-06-05T08:55:06;28.40;;;26.10;;
45274;SDS011;31019;43.780;25.948;2023-06-05T08:57:33;28.63;;;26.42;;
45274;SDS011;31019;43.780;25.948;2023-06-05T09:00:05;28.23;;;25.77;;
45274;SDS011;31019;43.780;25.948;2023-06-05T09:02:35;30.08;;;27.77;;
45274;SDS011;31019;43.780;25.948;2023-06-05T09:05:06;32.03;;;29.63;;
45274;SDS011;31019;43.780;25.948;2023-06-05T09:13:03;30.95;;;28.70;;
45274;SDS011;31019;43.780;25.948;2023-06-05T09:15:32;32.15;;;29.95;;
45274;SDS011;31019;43.780;25.948;2023-06-05T09:18:07;30.85;;;28.70;;
45274;SDS011;31019;43.780;25.948;2023-06-05T09:20:37;37.22;;;34.63;;
45274;SDS011;31019;43.780;25.948;2023-06-05T09:23:21;33.28;;;30.67;;
45274;SDS011;31019;43.780;25.948;2023-06-05T09:25:49;30.00;;;27.85;;
45274;SDS011;31019;43.780;25.948;2023-06-05T09:28:23;30.58;;;28.38;;
45274;SDS011;31019;43.780;25.948;2023-06-05T09:30:53;30.20;;;27.95;;
45274;SDS011;31019;43.780;25.948;2023-06-05T09:33:25;31.13;;;28.63;;
45274;SDS011;31019;43.780;25.948;2023-06-05T09:36:11;29.33;;;27.23;;
45274;SDS011;31019;43.780;25.948;2023-06-05T09:38:39;34.65;;;32.25;;
45274;SDS011;31019;43.780;25.948;2023-06-05T09:41:07;34.38;;;31.95;;
45274;SDS011;31019;43.780;25.948;2023-06-05T09:43:35;33.55;;;31.05;;
45274;SDS011;31019;43.780;25.948;2023-06-05T09:46:06;30.27;;;28.13;;
45274;SDS011;31019;43.780;25.948;2023-06-05T09:48:50;23.38;;;21.58;;
45274;SDS011;31019;43.780;25.948;2023-06-05T09:51:24;34.22;;;32.13;;
45274;SDS011;31019;43.780;25.948;2023-06-05T09:53:59;32.78;;;30.38;;
45274;SDS011;31019;43.780;25.948;2023-06-05T09:56:26;34.00;;;31.83;;
45274;SDS011;31019;43.780;25.948;2023-06-05T09:59:00;34.75;;;32.35;;
45274;SDS011;31019;43.780;25.948;2023-06-05T10:01:32;37.97;;;35.47;;
45274;SDS011;31019;43.780;25.948;2023-06-05T10:04:05;34.03;;;31.83;;
45274;SDS011;31019;43.780;25.948;2023-06-05T10:09:04;37.95;;;35.55;;
45274;SDS011;31019;43.780;25.948;2023-06-05T10:11:36;32.75;;;30.33;;
45274;SDS011;31019;43.780;25.948;2023-06-05T10:14:04;29.98;;;27.90;;
45274;SDS011;31019;43.780;25.948;2023-06-05T10:16:32;27.75;;;25.85;;
45274;SDS011;31019;43.780;25.948;2023-06-05T10:19:07;28.25;;;26.15;;
45274;SDS011;31019;43.780;25.948;2023-06-05T10:21:46;26.48;;;24.30;;
45274;SDS011;31019;43.780;25.948;2023-06-05T10:24:15;33.22;;;31.13;;
45274;SDS011;31019;43.780;25.948;2023-06-05T10:32:51;37.05;;;34.58;;
45274;SDS011;31019;43.780;25.948;2023-06-05T10:35:32;37.05;;;34.45;;
45274;SDS011;31019;43.780;25.948;2023-06-05T10:38:14;31.88;;;29.67;;
45274;SDS011;31019;43.780;25.948;2023-06-05T10:40:53;31.85;;;29.63;;
45274;SDS011;31019;43.780;25.948;2023-06-05T10:43:26;34.00;;;31.50;;
45274;SDS011;31019;43.780;25.948;2023-06-05T10:49:10;31.70;;;29.13;;
45274;SDS011;31019;43.780;25.948;2023-06-05T10:51:42;20.48;;;18.90;;
45274;SDS011;31019;43.780;25.948;2023-06-05T10:54:11;20.45;;;18.85;;
45274;SDS011;31019;43.780;25.948;2023-06-05T10:56:54;21.80;;;20.08;;
45274;SDS011;31019;43.780;25.948;2023-06-05T10:59:25;22.10;;;20.05;;
45274;SDS011;31019;43.780;25.948;2023-06-05T11:05:21;20.50;;;19.00;;
45274;SDS011;31019;43.780;25.948;2023-06-05T11:07:51;20.50;;;19.00;;
45274;SDS011;31019;43.780;25.948;2023-06-05T11:16:35;19.92;;;18.38;;
45274;SDS011;31019;43.780;25.948;2023-06-05T11:22:17;20.85;;;19.02;;
45274;SDS011;31019;43.780;25.948;2023-06-05T11:24:46;21.40;;;19.60;;
45274;SDS011;31019;43.780;25.948;2023-06-05T11:30:58;21.05;;;19.35;;
45274;SDS011;31019;43.780;25.948;2023-06-05T11:33:28;21.75;;;20.05;;
45274;SDS011;31019;43.780;25.948;2023-06-05T11:36:00;28.42;;;26.35;;
45274;SDS011;31019;43.780;25.948;2023-06-05T11:38:28;21.00;;;19.30;;
45274;SDS011;31019;43.780;25.948;2023-06-05T11:40:56;23.35;;;21.45;;
45274;SDS011;31019;43.780;25.948;2023-06-05T11:43:23;21.40;;;19.70;;
45274;SDS011;31019;43.780;25.948;2023-06-05T11:45:50;21.58;;;19.88;;
45274;SDS011;31019;43.780;25.948;2023-06-05T11:48:18;22.38;;;20.70;;
45274;SDS011;31019;43.780;25.948;2023-06-05T11:50:52;22.60;;;21.10;;
45274;SDS011;31019;43.780;25.948;2023-06-05T11:56:15;22.50;;;20.90;;
45274;SDS011;31019;43.780;25.948;2023-06-05T11:58:42;21.27;;;19.35;;
45274;SDS011;31019;43.780;25.948;2023-06-05T12:01:12;24.25;;;22.42;;
45274;SDS011;31019;43.780;25.948;2023-06-05T12:06:10;21.63;;;19.92;;
45274;SDS011;31019;43.780;25.948;2023-06-05T12:08:38;21.02;;;19.20;;
45274;SDS011;31019;43.780;25.948;2023-06-05T12:11:20;20.25;;;18.55;;
45274;SDS011;31019;43.780;25.948;2023-06-05T12:16:38;20.90;;;19.20;;
45274;SDS011;31019;43.780;25.948;2023-06-05T12:19:13;22.33;;;20.37;;
45274;SDS011;31019;43.780;25.948;2023-06-05T12:21:42;19.83;;;18.42;;
45274;SDS011;31019;43.780;25.948;2023-06-05T12:24:16;19.75;;;18.15;;
45274;SDS011;31019;43.780;25.948;2023-06-05T12:26:53;20.80;;;19.40;;
45274;SDS011;31019;43.780;25.948;2023-06-05T12:29:21;20.05;;;18.52;;
45274;SDS011;31019;43.780;25.948;2023-06-05T12:31:49;20.25;;;18.83;;
45274;SDS011;31019;43.780;25.948;2023-06-05T12:34:17;23.20;;;21.30;;
45274;SDS011;31019;43.780;25.948;2023-06-05T12:36:44;34.00;;;31.70;;
45274;SDS011;31019;43.780;25.948;2023-06-05T12:39:12;22.85;;;20.95;;
45274;SDS011;31019;43.780;25.948;2023-06-05T12:41:41;22.13;;;20.20;;
45274;SDS011;31019;43.780;25.948;2023-06-05T12:44:12;23.13;;;21.27;;
45274;SDS011;31019;43.780;25.948;2023-06-05T12:52:24;22.35;;;20.50;;
45274;SDS011;31019;43.780;25.948;2023-06-05T12:54:52;21.13;;;19.63;;
45274;SDS011;31019;43.780;25.948;2023-06-05T12:57:21;20.10;;;18.30;;
45274;SDS011;31019;43.780;25.948;2023-06-05T12:59:51;21.55;;;19.73;;
45274;SDS011;31019;43.780;25.948;2023-06-05T13:02:21;21.40;;;19.55;;
45274;SDS011;31019;43.780;25.948;2023-06-05T13:04:48;20.05;;;18.27;;
45274;SDS011;31019;43.780;25.948;2023-06-05T13:07:15;21.33;;;19.38;;
45274;SDS011;31019;43.780;25.948;2023-06-05T13:09:43;21.27;;;19.38;;
45274;SDS011;31019;43.780;25.948;2023-06-05T13:12:16;21.27;;;19.48;;
45274;SDS011;31019;43.780;25.948;2023-06-05T13:14:51;21.10;;;19.10;;
45274;SDS011;31019;43.780;25.948;2023-06-05T13:17:18;21.52;;;19.63;;
45274;SDS011;31019;43.780;25.948;2023-06-05T13:19:46;20.77;;;19.08;;
45274;SDS011;31019;43.780;25.948;2023-06-05T13:22:13;21.10;;;19.20;;
45274;SDS011;31019;43.780;25.948;2023-06-05T13:24:40;20.60;;;18.90;;
45274;SDS011;31019;43.780;25.948;2023-06-05T13:27:07;19.95;;;18.35;;
45274;SDS011;31019;43.780;25.948;2023-06-05T13:29:34;20.77;;;18.90;;
45274;SDS011;31019;43.780;25.948;2023-06-05T13:32:03;20.63;;;18.90;;
45274;SDS011;31019;43.780;25.948;2023-06-05T13:34:30;20.00;;;18.50;;
45274;SDS011;31019;43.780;25.948;2023-06-05T13:37:01;20.60;;;18.90;;
45274;SDS011;31019;43.780;25.948;2023-06-05T13:39:28;21.33;;;19.38;;
45274;SDS011;31019;43.780;25.948;2023-06-05T13:41:55;20.52;;;18.83;;
45274;SDS011;31019;43.780;25.948;2023-06-05T13:44:21;20.40;;;18.70;;
45274;SDS011;31019;43.780;25.948;2023-06-05T13:46:48;20.80;;;19.20;;
45274;SDS011;31019;43.780;25.948;2023-06-05T13:49:19;21.27;;;19.67;;
45274;SDS011;31019;43.780;25.948;2023-06-05T13:51:45;20.17;;;18.67;;
45274;SDS011;31019;43.780;25.948;2023-06-05T13:57:09;20.75;;;18.85;;
45274;SDS011;31019;43.780;25.948;2023-06-05T13:59:42;20.40;;;18.70;;
45274;SDS011;31019;43.780;25.948;2023-06-05T14:04:42;20.40;;;18.70;;
45274;SDS011;31019;43.780;25.948;2023-06-05T14:07:09;20.38;;;18.73;;
45274;SDS011;31019;43.780;25.948;2023-06-05T14:09:36;20.38;;;18.77;;
45274;SDS011;31019;43.780;25.948;2023-06-05T14:12:10;21.73;;;20.02;;
45274;SDS011;31019;43.780;25.948;2023-06-05T14:14:42;20.48;;;18.88;;
45274;SDS011;31019;43.780;25.948;2023-06-05T14:17:08;20.40;;;18.80;;
45274;SDS011;31019;43.780;25.948;2023-06-05T14:19:40;20.63;;;18.92;;
45274;SDS011;31019;43.780;25.948;2023-06-05T14:24:52;21.02;;;19.33;;
45274;SDS011;31019;43.780;25.948;2023-06-05T14:27:28;21.92;;;20.10;;
45274;SDS011;31019;43.780;25.948;2023-06-05T14:29:55;52.03;;;46.72;;
45274;SDS011;31019;43.780;25.948;2023-06-05T14:32:24;58.85;;;53.15;;
45274;SDS011;31019;43.780;25.948;2023-06-05T14:34:53;20.80;;;19.10;;
45274;SDS011;31019;43.780;25.948;2023-06-05T14:37:20;20.75;;;19.05;;
45274;SDS011;31019;43.780;25.948;2023-06-05T14:39:47;21.70;;;19.83;;
45274;SDS011;31019;43.780;25.948;2023-06-05T14:42:16;21.02;;;19.42;;
45274;SDS011;31019;43.780;25.948;2023-06-05T14:44:42;21.67;;;19.73;;
45274;SDS011;31019;43.780;25.948;2023-06-05T14:47:17;54.70;;;50.80;;
45274;SDS011;31019;43.780;25.948;2023-06-05T14:49:43;58.10;;;53.70;;
45274;SDS011;31019;43.780;25.948;2023-06-05T14:52:12;60.05;;;54.95;;
45274;SDS011;31019;43.780;25.948;2023-06-05T14:54:39;61.90;;;55.92;;
45274;SDS011;31019;43.780;25.948;2023-06-05T14:57:06;62.25;;;56.05;;
45274;SDS011;31019;43.780;25.948;2023-06-05T14:59:33;62.90;;;56.95;;
45274;SDS011;31019;43.780;25.948;2023-06-05T15:02:00;61.90;;;56.05;;
45274;SDS011;31019;43.780;25.948;2023-06-05T15:04:39;64.15;;;58.15;;
45274;SDS011;31019;43.780;25.948;2023-06-05T15:07:06;66.35;;;60.03;;
45274;SDS011;31019;43.780;25.948;2023-06-05T15:09:35;64.47;;;58.28;;
45274;SDS011;31019;43.780;25.948;2023-06-05T15:12:01;21.70;;;20.08;;
45274;SDS011;31019;43.780;25.948;2023-06-05T15:17:22;20.67;;;19.17;;
45274;SDS011;31019;43.780;25.948;2023-06-05T15:19:49;21.65;;;19.70;;
45274;SDS011;31019;43.780;25.948;2023-06-05T15:22:16;20.60;;;18.80;;
45274;SDS011;31019;43.780;25.948;2023-06-05T15:24:48;21.10;;;19.30;;
45274;SDS011;31019;43.780;25.948;2023-06-05T15:27:23;20.20;;;18.50;;
45274;SDS011;31019;43.780;25.948;2023-06-05T15:29:50;20.10;;;18.50;;
45274;SDS011;31019;43.780;25.948;2023-06-05T15:32:17;20.40;;;18.80;;
45274;SDS011;31019;43.780;25.948;2023-06-05T15:34:45;21.05;;;19.42;;
45274;SDS011;31019;43.780;25.948;2023-06-05T15:37:12;20.27;;;18.50;;
45274;SDS011;31019;43.780;25.948;2023-06-05T15:39:41;19.50;;;17.98;;
45274;SDS011;31019;43.780;25.948;2023-06-05T15:42:09;19.33;;;17.65;;
45274;SDS011;31019;43.780;25.948;2023-06-05T15:44:39;20.38;;;18.52;;
45274;SDS011;31019;43.780;25.948;2023-06-05T15:47:06;21.27;;;19.58;;
45274;SDS011;31019;43.780;25.948;2023-06-05T15:49:34;21.92;;;19.73;;
45274;SDS011;31019;43.780;25.948;2023-06-05T15:52:01;20.52;;;18.73;;